sensor_id;sensor_type;location;lat;lon;timestamp;P1;durP1;ratioP1;P2;durP2;ratioP2
35366;SDS011;21465;52.278;20.962;2023-05-10T00:01:08;4.18;;;2.50;;
35366;SDS011;21465;52.278;20.962;2023-05-10T00:03:33;3.15;;;2.60;;
35366;SDS011;21465;52.278;20.962;2023-05-10T00:05:59;2.70;;;2.45;;
35366;SDS011;21465;52.278;20.962;2023-05-10T00:08:24;4.85;;;3.10;;
35366;SDS011;21465;52.278;20.962;2023-05-10T00:10:50;2.90;;;2.60;;
35366;SDS011;21465;52.278;20.962;2023-05-10T00:13:16;2.45;;;2.22;;
35366;SDS011;21465;52.278;20.962;2023-05-10T00:15:42;3.95;;;2.42;;
35366;SDS011;21465;52.278;20.962;2023-05-10T00:18:07;3.72;;;2.80;;
35366;SDS011;21465;52.278;20.962;2023-05-10T00:20:33;2.60;;;2.40;;
35366;SDS011;21465;52.278;20.962;2023-05-10T00:22:59;2.53;;;2.30;;
35366;SDS011;21465;52.278;20.962;2023-05-10T00:25:25;3.30;;;2.63;;
35366;SDS011;21465;52.278;20.962;2023-05-10T00:27:50;2.30;;;2.10;;
35366;SDS011;21465;52.278;20.962;2023-05-10T00:30:16;2.70;;;2.35;;
35366;SDS011;21465;52.278;20.962;2023-05-10T00:32:42;2.75;;;2.55;;
35366;SDS011;21465;52.278;20.962;2023-05-10T00:35:08;3.03;;;2.50;;
35366;SDS011;21465;52.278;20.962;2023-05-10T00:37:34;2.30;;;2.10;;
35366;SDS011;21465;52.278;20.962;2023-05-10T00:40:00;2.72;;;2.35;;
35366;SDS011;21465;52.278;20.962;2023-05-10T00:42:26;2.63;;;2.42;;
35366;SDS011;21465;52.278;20.962;2023-05-10T00:44:52;2.95;;;2.65;;
35366;SDS011;21465;52.278;20.962;2023-05-10T00:47:17;2.40;;;2.20;;
35366;SDS011;21465;52.278;20.962;2023-05-10T00:49:44;2.63;;;2.38;;
35366;SDS011;21465;52.278;20.962;2023-05-10T00:52:10;2.95;;;2.45;;
35366;SDS011;21465;52.278;20.962;2023-05-10T00:54:36;2.35;;;2.00;;
35366;SDS011;21465;52.278;20.962;2023-05-10T00:57:02;3.38;;;2.35;;
35366;SDS011;21465;52.278;20.962;2023-05-10T00:59:28;3.83;;;2.63;;
35366;SDS011;21465;52.278;20.962;2023-05-10T01:01:54;3.47;;;2.53;;
35366;SDS011;21465;52.278;20.962;2023-05-10T01:04:20;2.35;;;1.90;;
35366;SDS011;21465;52.278;20.962;2023-05-10T01:06:51;2.97;;;2.03;;
35366;SDS011;21465;52.278;20.962;2023-05-10T01:09:17;3.22;;;2.30;;
35366;SDS011;21465;52.278;20.962;2023-05-10T01:11:43;3.10;;;1.95;;
35366;SDS011;21465;52.278;20.962;2023-05-10T01:14:09;3.00;;;2.20;;
35366;SDS011;21465;52.278;20.962;2023-05-10T01:16:36;2.45;;;2.17;;
35366;SDS011;21465;52.278;20.962;2023-05-10T01:19:06;2.30;;;2.10;;
35366;SDS011;21465;52.278;20.962;2023-05-10T01:33:05;2.35;;;2.13;;
35366;SDS011;21465;52.278;20.962;2023-05-10T01:35:37;2.55;;;2.03;;
35366;SDS011;21465;52.278;20.962;2023-05-10T01:41:19;2.25;;;2.00;;
35366;SDS011;21465;52.278;20.962;2023-05-10T01:47:06;2.22;;;1.98;;
35366;SDS011;21465;52.278;20.962;2023-05-10T01:49:37;2.55;;;2.25;;
35366;SDS011;21465;52.278;20.962;2023-05-10T01:52:08;2.30;;;2.00;;
35366;SDS011;21465;52.278;20.962;2023-05-10T01:54:38;3.80;;;2.80;;
35366;SDS011;21465;52.278;20.962;2023-05-10T01:57:07;1.88;;;1.73;;
35366;SDS011;21465;52.278;20.962;2023-05-10T01:59:34;2.75;;;2.15;;
35366;SDS011;21465;52.278;20.962;2023-05-10T02:02:06;2.28;;;2.08;;
35366;SDS011;21465;52.278;20.962;2023-05-10T02:04:32;2.63;;;2.00;;
35366;SDS011;21465;52.278;20.962;2023-05-10T02:07:00;3.88;;;2.22;;
35366;SDS011;21465;52.278;20.962;2023-05-10T02:09:26;2.85;;;1.88;;
35366;SDS011;21465;52.278;20.962;2023-05-10T02:11:53;2.15;;;1.95;;
35366;SDS011;21465;52.278;20.962;2023-05-10T02:14:19;3.83;;;2.35;;
35366;SDS011;21465;52.278;20.962;2023-05-10T02:16:46;2.85;;;1.90;;
35366;SDS011;21465;52.278;20.962;2023-05-10T02:19:11;2.40;;;2.20;;
35366;SDS011;21465;52.278;20.962;2023-05-10T02:21:38;2.13;;;1.90;;
35366;SDS011;21465;52.278;20.962;2023-05-10T02:24:04;6.53;;;2.10;;
35366;SDS011;21465;52.278;20.962;2023-05-10T02:26:31;2.40;;;2.10;;
35366;SDS011;21465;52.278;20.962;2023-05-10T02:28:58;2.53;;;2.22;;
35366;SDS011;21465;52.278;20.962;2023-05-10T02:31:24;2.50;;;2.00;;
35366;SDS011;21465;52.278;20.962;2023-05-10T02:33:50;2.83;;;2.17;;
35366;SDS011;21465;52.278;20.962;2023-05-10T02:36:16;3.28;;;2.13;;
35366;SDS011;21465;52.278;20.962;2023-05-10T02:38:44;2.75;;;2.03;;
35366;SDS011;21465;52.278;20.962;2023-05-10T02:41:10;2.25;;;2.05;;
35366;SDS011;21465;52.278;20.962;2023-05-10T02:43:36;3.20;;;2.47;;
35366;SDS011;21465;52.278;20.962;2023-05-10T02:46:03;2.58;;;2.00;;
35366;SDS011;21465;52.278;20.962;2023-05-10T02:48:29;2.60;;;2.28;;
35366;SDS011;21465;52.278;20.962;2023-05-10T02:50:56;3.35;;;1.98;;
35366;SDS011;21465;52.278;20.962;2023-05-10T02:53:30;2.35;;;2.00;;
35366;SDS011;21465;52.278;20.962;2023-05-10T02:55:59;3.25;;;2.03;;
35366;SDS011;21465;52.278;20.962;2023-05-10T02:58:29;1.73;;;1.63;;
35366;SDS011;21465;52.278;20.962;2023-05-10T03:00:54;2.55;;;2.25;;
35366;SDS011;21465;52.278;20.962;2023-05-10T03:03:20;2.80;;;2.13;;
35366;SDS011;21465;52.278;20.962;2023-05-10T03:05:46;3.40;;;2.30;;
35366;SDS011;21465;52.278;20.962;2023-05-10T03:08:12;2.72;;;2.00;;
35366;SDS011;21465;52.278;20.962;2023-05-10T03:10:41;2.70;;;2.50;;
35366;SDS011;21465;52.278;20.962;2023-05-10T03:16:16;2.55;;;2.20;;
35366;SDS011;21465;52.278;20.962;2023-05-10T03:18:48;3.72;;;2.47;;
35366;SDS011;21465;52.278;20.962;2023-05-10T03:21:25;3.90;;;1.98;;
35366;SDS011;21465;52.278;20.962;2023-05-10T03:24:05;2.60;;;2.35;;
35366;SDS011;21465;52.278;20.962;2023-05-10T03:26:32;4.68;;;2.33;;
35366;SDS011;21465;52.278;20.962;2023-05-10T03:28:59;3.83;;;2.50;;
35366;SDS011;21465;52.278;20.962;2023-05-10T03:31:26;2.65;;;2.30;;
35366;SDS011;21465;52.278;20.962;2023-05-10T03:33:52;2.13;;;1.90;;
35366;SDS011;21465;52.278;20.962;2023-05-10T03:36:18;1.98;;;1.73;;
35366;SDS011;21465;52.278;20.962;2023-05-10T03:38:44;4.72;;;2.35;;
35366;SDS011;21465;52.278;20.962;2023-05-10T03:41:10;2.75;;;2.25;;
35366;SDS011;21465;52.278;20.962;2023-05-10T03:43:36;2.42;;;2.00;;
35366;SDS011;21465;52.278;20.962;2023-05-10T03:46:02;3.58;;;2.08;;
35366;SDS011;21465;52.278;20.962;2023-05-10T03:48:28;1.98;;;1.77;;
35366;SDS011;21465;52.278;20.962;2023-05-10T03:50:54;2.65;;;2.05;;
35366;SDS011;21465;52.278;20.962;2023-05-10T03:53:20;2.25;;;2.03;;
35366;SDS011;21465;52.278;20.962;2023-05-10T03:55:46;1.98;;;1.88;;
35366;SDS011;21465;52.278;20.962;2023-05-10T03:58:12;3.67;;;2.22;;
35366;SDS011;21465;52.278;20.962;2023-05-10T04:00:38;3.10;;;2.35;;
35366;SDS011;21465;52.278;20.962;2023-05-10T04:03:11;2.83;;;1.77;;
35366;SDS011;21465;52.278;20.962;2023-05-10T04:05:38;3.38;;;2.38;;
35366;SDS011;21465;52.278;20.962;2023-05-10T04:08:04;2.58;;;2.22;;
35366;SDS011;21465;52.278;20.962;2023-05-10T04:10:30;3.05;;;2.10;;
35366;SDS011;21465;52.278;20.962;2023-05-10T04:12:56;2.08;;;1.85;;
35366;SDS011;21465;52.278;20.962;2023-05-10T04:15:22;2.10;;;1.95;;
35366;SDS011;21465;52.278;20.962;2023-05-10T04:17:47;4.10;;;2.47;;
35366;SDS011;21465;52.278;20.962;2023-05-10T04:20:13;2.22;;;1.88;;
35366;SDS011;21465;52.278;20.962;2023-05-10T04:22:39;3.20;;;2.22;;
35366;SDS011;21465;52.278;20.962;2023-05-10T04:25:06;5.63;;;2.70;;
35366;SDS011;21465;52.278;20.962;2023-05-10T04:27:32;3.72;;;2.17;;
35366;SDS011;21465;52.278;20.962;2023-05-10T04:29:59;3.40;;;2.17;;
35366;SDS011;21465;52.278;20.962;2023-05-10T04:32:24;3.25;;;2.10;;
35366;SDS011;21465;52.278;20.962;2023-05-10T04:34:51;2.33;;;2.10;;
35366;SDS011;21465;52.278;20.962;2023-05-10T04:37:18;3.92;;;1.88;;
35366;SDS011;21465;52.278;20.962;2023-05-10T04:39:44;2.42;;;2.08;;
35366;SDS011;21465;52.278;20.962;2023-05-10T04:42:09;3.88;;;2.10;;
35366;SDS011;21465;52.278;20.962;2023-05-10T04:44:36;2.70;;;1.88;;
35366;SDS011;21465;52.278;20.962;2023-05-10T04:47:01;2.10;;;1.88;;
35366;SDS011;21465;52.278;20.962;2023-05-10T04:49:31;2.42;;;2.20;;
35366;SDS011;21465;52.278;20.962;2023-05-10T04:51:57;5.80;;;2.30;;
35366;SDS011;21465;52.278;20.962;2023-05-10T04:54:23;2.63;;;2.15;;
35366;SDS011;21465;52.278;20.962;2023-05-10T04:56:49;3.70;;;2.05;;
35366;SDS011;21465;52.278;20.962;2023-05-10T04:59:15;3.13;;;2.60;;
35366;SDS011;21465;52.278;20.962;2023-05-10T05:01:41;2.58;;;2.33;;
35366;SDS011;21465;52.278;20.962;2023-05-10T05:04:07;2.40;;;2.20;;
35366;SDS011;21465;52.278;20.962;2023-05-10T05:06:32;4.60;;;2.25;;
35366;SDS011;21465;52.278;20.962;2023-05-10T05:08:58;2.65;;;2.00;;
35366;SDS011;21465;52.278;20.962;2023-05-10T05:11:24;3.17;;;2.70;;
35366;SDS011;21465;52.278;20.962;2023-05-10T05:13:51;2.63;;;2.28;;
35366;SDS011;21465;52.278;20.962;2023-05-10T05:16:16;3.70;;;2.33;;
35366;SDS011;21465;52.278;20.962;2023-05-10T05:18:42;3.35;;;2.00;;
35366;SDS011;21465;52.278;20.962;2023-05-10T05:21:15;2.67;;;2.08;;
35366;SDS011;21465;52.278;20.962;2023-05-10T05:23:42;3.28;;;2.38;;
35366;SDS011;21465;52.278;20.962;2023-05-10T05:26:08;4.60;;;2.38;;
35366;SDS011;21465;52.278;20.962;2023-05-10T05:28:34;3.85;;;1.90;;
35366;SDS011;21465;52.278;20.962;2023-05-10T05:31:02;3.88;;;2.63;;
35366;SDS011;21465;52.278;20.962;2023-05-10T05:33:29;2.90;;;2.20;;
35366;SDS011;21465;52.278;20.962;2023-05-10T05:35:55;3.20;;;2.10;;
35366;SDS011;21465;52.278;20.962;2023-05-10T05:38:21;5.10;;;2.10;;
35366;SDS011;21465;52.278;20.962;2023-05-10T05:40:47;2.17;;;1.98;;
35366;SDS011;21465;52.278;20.962;2023-05-10T05:43:12;2.65;;;2.10;;
35366;SDS011;21465;52.278;20.962;2023-05-10T05:45:38;2.85;;;2.55;;
35366;SDS011;21465;52.278;20.962;2023-05-10T05:48:05;4.85;;;2.33;;
35366;SDS011;21465;52.278;20.962;2023-05-10T05:50:30;3.10;;;2.10;;
35366;SDS011;21465;52.278;20.962;2023-05-10T05:52:57;4.13;;;2.25;;
35366;SDS011;21465;52.278;20.962;2023-05-10T05:55:23;3.50;;;2.10;;
35366;SDS011;21465;52.278;20.962;2023-05-10T05:57:49;3.85;;;2.38;;
35366;SDS011;21465;52.278;20.962;2023-05-10T06:00:15;2.85;;;2.10;;
35366;SDS011;21465;52.278;20.962;2023-05-10T06:02:41;4.30;;;1.95;;
35366;SDS011;21465;52.278;20.962;2023-05-10T06:05:07;4.82;;;2.58;;
35366;SDS011;21465;52.278;20.962;2023-05-10T06:07:33;2.05;;;1.80;;
35366;SDS011;21465;52.278;20.962;2023-05-10T06:09:59;4.03;;;2.10;;
35366;SDS011;21465;52.278;20.962;2023-05-10T06:12:25;4.28;;;1.92;;
35366;SDS011;21465;52.278;20.962;2023-05-10T06:14:50;2.95;;;2.20;;
35366;SDS011;21465;52.278;20.962;2023-05-10T06:17:16;3.53;;;2.33;;
35366;SDS011;21465;52.278;20.962;2023-05-10T06:19:44;3.28;;;1.77;;
35366;SDS011;21465;52.278;20.962;2023-05-10T06:22:10;4.82;;;2.38;;
35366;SDS011;21465;52.278;20.962;2023-05-10T06:24:36;2.95;;;1.77;;
35366;SDS011;21465;52.278;20.962;2023-05-10T06:27:02;2.25;;;1.80;;
35366;SDS011;21465;52.278;20.962;2023-05-10T06:29:29;2.60;;;1.67;;
35366;SDS011;21465;52.278;20.962;2023-05-10T06:31:55;2.10;;;1.90;;
35366;SDS011;21465;52.278;20.962;2023-05-10T06:34:20;4.10;;;1.83;;
35366;SDS011;21465;52.278;20.962;2023-05-10T06:36:46;2.97;;;1.73;;
35366;SDS011;21465;52.278;20.962;2023-05-10T06:39:12;3.22;;;1.70;;
35366;SDS011;21465;52.278;20.962;2023-05-10T06:41:38;2.47;;;1.80;;
35366;SDS011;21465;52.278;20.962;2023-05-10T06:44:03;2.70;;;1.70;;
35366;SDS011;21465;52.278;20.962;2023-05-10T06:46:29;1.85;;;1.75;;
35366;SDS011;21465;52.278;20.962;2023-05-10T06:48:55;3.28;;;2.17;;
35366;SDS011;21465;52.278;20.962;2023-05-10T06:51:21;6.90;;;2.05;;
35366;SDS011;21465;52.278;20.962;2023-05-10T06:53:46;5.65;;;2.00;;
35366;SDS011;21465;52.278;20.962;2023-05-10T06:56:17;3.83;;;2.00;;
35366;SDS011;21465;52.278;20.962;2023-05-10T06:58:42;3.22;;;1.95;;
35366;SDS011;21465;52.278;20.962;2023-05-10T07:01:08;3.35;;;1.60;;
35366;SDS011;21465;52.278;20.962;2023-05-10T07:03:34;3.03;;;2.03;;
35366;SDS011;21465;52.278;20.962;2023-05-10T07:06:03;1.77;;;1.40;;
35366;SDS011;21465;52.278;20.962;2023-05-10T07:08:32;1.83;;;1.30;;
35366;SDS011;21465;52.278;20.962;2023-05-10T07:13:29;1.80;;;1.25;;
35366;SDS011;21465;52.278;20.962;2023-05-10T07:15:58;2.50;;;1.50;;
35366;SDS011;21465;52.278;20.962;2023-05-10T07:18:25;2.78;;;1.35;;
35366;SDS011;21465;52.278;20.962;2023-05-10T07:20:51;2.10;;;1.10;;
35366;SDS011;21465;52.278;20.962;2023-05-10T07:23:17;2.97;;;1.60;;
35366;SDS011;21465;52.278;20.962;2023-05-10T07:25:47;1.70;;;1.35;;
35366;SDS011;21465;52.278;20.962;2023-05-10T07:28:13;2.58;;;1.10;;
35366;SDS011;21465;52.278;20.962;2023-05-10T07:30:40;1.55;;;1.30;;
35366;SDS011;21465;52.278;20.962;2023-05-10T07:33:05;2.65;;;1.55;;
35366;SDS011;21465;52.278;20.962;2023-05-10T07:35:31;1.15;;;1.08;;
35366;SDS011;21465;52.278;20.962;2023-05-10T07:37:57;1.38;;;1.27;;
35366;SDS011;21465;52.278;20.962;2023-05-10T07:40:22;1.92;;;1.17;;
35366;SDS011;21465;52.278;20.962;2023-05-10T07:42:48;1.63;;;1.35;;
35366;SDS011;21465;52.278;20.962;2023-05-10T07:45:14;1.80;;;1.10;;
35366;SDS011;21465;52.278;20.962;2023-05-10T07:47:40;2.22;;;1.10;;
35366;SDS011;21465;52.278;20.962;2023-05-10T07:50:09;5.03;;;1.50;;
35366;SDS011;21465;52.278;20.962;2023-05-10T07:52:37;3.80;;;1.25;;
35366;SDS011;21465;52.278;20.962;2023-05-10T07:55:04;1.90;;;1.40;;
35366;SDS011;21465;52.278;20.962;2023-05-10T07:57:30;3.60;;;1.30;;
35366;SDS011;21465;52.278;20.962;2023-05-10T07:59:56;1.92;;;0.98;;
35366;SDS011;21465;52.278;20.962;2023-05-10T08:02:22;1.25;;;1.10;;
35366;SDS011;21465;52.278;20.962;2023-05-10T08:04:49;1.10;;;1.00;;
35366;SDS011;21465;52.278;20.962;2023-05-10T08:07:14;2.50;;;1.30;;
35366;SDS011;21465;52.278;20.962;2023-05-10T08:09:40;3.78;;;1.50;;
35366;SDS011;21465;52.278;20.962;2023-05-10T08:12:06;2.38;;;1.23;;
35366;SDS011;21465;52.278;20.962;2023-05-10T08:14:33;1.77;;;1.30;;
35366;SDS011;21465;52.278;20.962;2023-05-10T08:17:02;4.75;;;1.70;;
35366;SDS011;21465;52.278;20.962;2023-05-10T08:19:28;2.00;;;1.13;;
35366;SDS011;21465;52.278;20.962;2023-05-10T08:21:59;1.50;;;1.08;;
35366;SDS011;21465;52.278;20.962;2023-05-10T08:24:27;2.47;;;1.05;;
35366;SDS011;21465;52.278;20.962;2023-05-10T08:26:53;1.30;;;1.10;;
35366;SDS011;21465;52.278;20.962;2023-05-10T08:29:22;1.20;;;1.10;;
35366;SDS011;21465;52.278;20.962;2023-05-10T08:31:48;1.35;;;1.13;;
35366;SDS011;21465;52.278;20.962;2023-05-10T08:34:14;1.83;;;1.10;;
35366;SDS011;21465;52.278;20.962;2023-05-10T08:36:40;1.23;;;1.13;;
35366;SDS011;21465;52.278;20.962;2023-05-10T08:39:09;1.70;;;1.13;;
35366;SDS011;21465;52.278;20.962;2023-05-10T08:41:35;3.00;;;1.23;;
35366;SDS011;21465;52.278;20.962;2023-05-10T08:44:04;1.58;;;1.00;;
35366;SDS011;21465;52.278;20.962;2023-05-10T08:46:35;2.83;;;1.10;;
35366;SDS011;21465;52.278;20.962;2023-05-10T08:49:11;2.25;;;1.25;;
35366;SDS011;21465;52.278;20.962;2023-05-10T08:51:40;3.38;;;1.10;;
35366;SDS011;21465;52.278;20.962;2023-05-10T08:54:06;1.10;;;0.95;;
35366;SDS011;21465;52.278;20.962;2023-05-10T08:56:34;1.50;;;1.00;;
35366;SDS011;21465;52.278;20.962;2023-05-10T08:59:04;4.55;;;1.10;;
35366;SDS011;21465;52.278;20.962;2023-05-10T09:01:30;2.35;;;0.90;;
35366;SDS011;21465;52.278;20.962;2023-05-10T09:03:57;1.70;;;1.33;;
35366;SDS011;21465;52.278;20.962;2023-05-10T09:06:23;4.55;;;0.95;;
35366;SDS011;21465;52.278;20.962;2023-05-10T09:08:49;3.15;;;1.50;;
35366;SDS011;21465;52.278;20.962;2023-05-10T09:11:20;1.13;;;1.02;;
35366;SDS011;21465;52.278;20.962;2023-05-10T09:13:53;1.65;;;1.15;;
35366;SDS011;21465;52.278;20.962;2023-05-10T09:16:26;1.90;;;1.00;;
35366;SDS011;21465;52.278;20.962;2023-05-10T09:18:52;2.67;;;1.20;;
35366;SDS011;21465;52.278;20.962;2023-05-10T09:21:21;2.00;;;1.23;;
35366;SDS011;21465;52.278;20.962;2023-05-10T09:23:47;1.70;;;1.27;;
35366;SDS011;21465;52.278;20.962;2023-05-10T09:26:15;3.92;;;1.50;;
35366;SDS011;21465;52.278;20.962;2023-05-10T09:29:14;3.15;;;1.50;;
35366;SDS011;21465;52.278;20.962;2023-05-10T09:31:43;1.58;;;1.02;;
35366;SDS011;21465;52.278;20.962;2023-05-10T09:34:15;2.72;;;1.10;;
35366;SDS011;21465;52.278;20.962;2023-05-10T09:36:51;1.63;;;1.20;;
35366;SDS011;21465;52.278;20.962;2023-05-10T09:39:18;1.40;;;1.17;;
35366;SDS011;21465;52.278;20.962;2023-05-10T09:41:44;3.08;;;1.20;;
35366;SDS011;21465;52.278;20.962;2023-05-10T09:44:10;3.58;;;1.23;;
35366;SDS011;21465;52.278;20.962;2023-05-10T09:46:35;1.17;;;1.08;;
35366;SDS011;21465;52.278;20.962;2023-05-10T09:49:02;2.70;;;1.00;;
35366;SDS011;21465;52.278;20.962;2023-05-10T09:51:27;2.97;;;1.33;;
35366;SDS011;21465;52.278;20.962;2023-05-10T09:54:10;5.88;;;1.05;;
35366;SDS011;21465;52.278;20.962;2023-05-10T09:56:40;1.38;;;1.10;;
35366;SDS011;21465;52.278;20.962;2023-05-10T09:59:10;1.23;;;1.00;;
35366;SDS011;21465;52.278;20.962;2023-05-10T10:01:38;0.90;;;0.90;;
35366;SDS011;21465;52.278;20.962;2023-05-10T10:04:05;6.47;;;1.40;;
35366;SDS011;21465;52.278;20.962;2023-05-10T10:06:40;1.60;;;1.10;;
35366;SDS011;21465;52.278;20.962;2023-05-10T10:09:06;1.00;;;0.95;;
35366;SDS011;21465;52.278;20.962;2023-05-10T10:11:34;3.35;;;1.15;;
35366;SDS011;21465;52.278;20.962;2023-05-10T10:14:04;2.45;;;1.30;;
35366;SDS011;21465;52.278;20.962;2023-05-10T10:16:31;2.00;;;0.95;;
35366;SDS011;21465;52.278;20.962;2023-05-10T10:19:03;2.38;;;1.50;;
35366;SDS011;21465;52.278;20.962;2023-05-10T10:21:32;4.88;;;1.17;;
35366;SDS011;21465;52.278;20.962;2023-05-10T10:23:58;4.28;;;1.00;;
35366;SDS011;21465;52.278;20.962;2023-05-10T10:26:24;3.47;;;1.10;;
35366;SDS011;21465;52.278;20.962;2023-05-10T10:34:08;2.80;;;1.08;;
35366;SDS011;21465;52.278;20.962;2023-05-10T10:36:47;1.90;;;1.25;;
35366;SDS011;21465;52.278;20.962;2023-05-10T10:39:14;1.98;;;1.27;;
35366;SDS011;21465;52.278;20.962;2023-05-10T10:41:55;1.35;;;1.05;;
35366;SDS011;21465;52.278;20.962;2023-05-10T10:52:27;2.70;;;0.80;;
35366;SDS011;21465;52.278;20.962;2023-05-10T10:54:58;3.45;;;1.27;;
35366;SDS011;21465;52.278;20.962;2023-05-10T11:03:14;2.00;;;0.80;;
35366;SDS011;21465;52.278;20.962;2023-05-10T11:05:47;2.25;;;0.90;;
35366;SDS011;21465;52.278;20.962;2023-05-10T11:08:15;1.20;;;0.80;;
35366;SDS011;21465;52.278;20.962;2023-05-10T11:10:52;1.33;;;0.90;;
35366;SDS011;21465;52.278;20.962;2023-05-10T11:16:20;2.45;;;0.73;;
35366;SDS011;21465;52.278;20.962;2023-05-10T11:21:28;2.03;;;0.82;;
35366;SDS011;21465;52.278;20.962;2023-05-10T11:23:56;2.50;;;1.10;;
35366;SDS011;21465;52.278;20.962;2023-05-10T11:26:23;2.28;;;1.00;;
35366;SDS011;21465;52.278;20.962;2023-05-10T11:28:52;4.57;;;1.20;;
35366;SDS011;21465;52.278;20.962;2023-05-10T11:31:21;3.15;;;1.02;;
35366;SDS011;21465;52.278;20.962;2023-05-10T11:33:51;3.15;;;1.13;;
35366;SDS011;21465;52.278;20.962;2023-05-10T11:39:16;2.70;;;1.08;;
35366;SDS011;21465;52.278;20.962;2023-05-10T11:41:42;2.25;;;0.93;;
35366;SDS011;21465;52.278;20.962;2023-05-10T11:44:08;3.08;;;1.10;;
35366;SDS011;21465;52.278;20.962;2023-05-10T11:46:34;1.88;;;1.02;;
35366;SDS011;21465;52.278;20.962;2023-05-10T11:49:02;0.82;;;0.70;;
35366;SDS011;21465;52.278;20.962;2023-05-10T11:51:35;2.30;;;0.98;;
35366;SDS011;21465;52.278;20.962;2023-05-10T11:54:04;4.05;;;1.30;;
35366;SDS011;21465;52.278;20.962;2023-05-10T11:58:57;4.97;;;1.30;;
35366;SDS011;21465;52.278;20.962;2023-05-10T12:01:24;1.92;;;0.80;;
35366;SDS011;21465;52.278;20.962;2023-05-10T12:03:51;3.60;;;1.27;;
35366;SDS011;21465;52.278;20.962;2023-05-10T12:06:18;2.88;;;0.95;;
35366;SDS011;21465;52.278;20.962;2023-05-10T12:08:45;1.30;;;0.98;;
35366;SDS011;21465;52.278;20.962;2023-05-10T12:11:12;2.80;;;1.00;;
35366;SDS011;21465;52.278;20.962;2023-05-10T12:13:44;2.47;;;1.13;;
35366;SDS011;21465;52.278;20.962;2023-05-10T12:16:24;2.13;;;0.93;;
35366;SDS011;21465;52.278;20.962;2023-05-10T12:18:51;1.58;;;0.93;;
35366;SDS011;21465;52.278;20.962;2023-05-10T12:21:19;1.45;;;0.98;;
35366;SDS011;21465;52.278;20.962;2023-05-10T12:23:46;1.73;;;1.00;;
35366;SDS011;21465;52.278;20.962;2023-05-10T12:26:12;2.72;;;1.23;;
35366;SDS011;21465;52.278;20.962;2023-05-10T12:28:40;3.47;;;1.40;;
35366;SDS011;21465;52.278;20.962;2023-05-10T12:31:06;1.77;;;0.90;;
35366;SDS011;21465;52.278;20.962;2023-05-10T12:33:43;1.00;;;0.90;;
35366;SDS011;21465;52.278;20.962;2023-05-10T12:36:15;1.00;;;0.90;;
35366;SDS011;21465;52.278;20.962;2023-05-10T12:38:44;4.15;;;1.10;;
35366;SDS011;21465;52.278;20.962;2023-05-10T12:41:14;0.60;;;0.57;;
35366;SDS011;21465;52.278;20.962;2023-05-10T12:43:41;2.70;;;1.13;;
35366;SDS011;21465;52.278;20.962;2023-05-10T12:46:14;1.85;;;0.90;;
35366;SDS011;21465;52.278;20.962;2023-05-10T12:48:42;2.08;;;0.90;;
35366;SDS011;21465;52.278;20.962;2023-05-10T12:51:08;1.65;;;1.13;;
35366;SDS011;21465;52.278;20.962;2023-05-10T12:53:38;1.90;;;0.80;;
35366;SDS011;21465;52.278;20.962;2023-05-10T12:56:04;0.60;;;0.60;;
35366;SDS011;21465;52.278;20.962;2023-05-10T12:58:31;1.42;;;0.95;;
35366;SDS011;21465;52.278;20.962;2023-05-10T13:00:57;0.70;;;0.60;;
35366;SDS011;21465;52.278;20.962;2023-05-10T13:03:42;1.45;;;0.90;;
35366;SDS011;21465;52.278;20.962;2023-05-10T13:06:14;1.60;;;0.80;;
35366;SDS011;21465;52.278;20.962;2023-05-10T13:08:49;1.95;;;0.82;;
35366;SDS011;21465;52.278;20.962;2023-05-10T13:11:15;1.80;;;1.13;;
35366;SDS011;21465;52.278;20.962;2023-05-10T13:13:42;2.17;;;0.90;;
35366;SDS011;21465;52.278;20.962;2023-05-10T13:16:08;3.08;;;1.20;;
35366;SDS011;21465;52.278;20.962;2023-05-10T13:18:36;2.60;;;1.05;;
35366;SDS011;21465;52.278;20.962;2023-05-10T13:21:02;1.85;;;0.95;;
35366;SDS011;21465;52.278;20.962;2023-05-10T13:23:30;1.00;;;0.90;;
35366;SDS011;21465;52.278;20.962;2023-05-10T13:25:56;1.27;;;0.77;;
35366;SDS011;21465;52.278;20.962;2023-05-10T13:28:33;2.58;;;1.02;;
35366;SDS011;21465;52.278;20.962;2023-05-10T13:30:59;2.53;;;1.10;;
35366;SDS011;21465;52.278;20.962;2023-05-10T13:33:25;2.33;;;1.00;;
35366;SDS011;21465;52.278;20.962;2023-05-10T13:35:51;1.30;;;1.20;;
35366;SDS011;21465;52.278;20.962;2023-05-10T13:38:16;1.40;;;0.90;;
35366;SDS011;21465;52.278;20.962;2023-05-10T13:40:42;1.42;;;0.80;;
35366;SDS011;21465;52.278;20.962;2023-05-10T13:43:08;2.80;;;0.98;;
35366;SDS011;21465;52.278;20.962;2023-05-10T13:45:34;1.38;;;1.02;;
35366;SDS011;21465;52.278;20.962;2023-05-10T13:48:00;1.52;;;1.02;;
35366;SDS011;21465;52.278;20.962;2023-05-10T13:50:26;1.80;;;0.90;;
35366;SDS011;21465;52.278;20.962;2023-05-10T13:52:52;1.42;;;0.90;;
35366;SDS011;21465;52.278;20.962;2023-05-10T13:58:39;1.52;;;1.25;;
35366;SDS011;21465;52.278;20.962;2023-05-10T14:01:06;6.55;;;1.00;;
35366;SDS011;21465;52.278;20.962;2023-05-10T14:03:31;1.90;;;1.20;;
35366;SDS011;21465;52.278;20.962;2023-05-10T14:05:58;0.82;;;0.65;;
35366;SDS011;21465;52.278;20.962;2023-05-10T14:08:24;1.42;;;0.85;;
35366;SDS011;21465;52.278;20.962;2023-05-10T14:10:50;2.20;;;0.93;;
35366;SDS011;21465;52.278;20.962;2023-05-10T14:13:17;1.80;;;1.20;;
35366;SDS011;21465;52.278;20.962;2023-05-10T14:15:43;1.60;;;1.00;;
35366;SDS011;21465;52.278;20.962;2023-05-10T14:18:09;1.40;;;1.02;;
35366;SDS011;21465;52.278;20.962;2023-05-10T14:20:35;1.85;;;0.93;;
35366;SDS011;21465;52.278;20.962;2023-05-10T14:23:01;1.65;;;0.82;;
35366;SDS011;21465;52.278;20.962;2023-05-10T14:25:27;0.75;;;0.70;;
35366;SDS011;21465;52.278;20.962;2023-05-10T14:27:53;1.17;;;0.98;;
35366;SDS011;21465;52.278;20.962;2023-05-10T14:30:20;1.02;;;0.93;;
35366;SDS011;21465;52.278;20.962;2023-05-10T14:32:46;2.75;;;0.77;;
35366;SDS011;21465;52.278;20.962;2023-05-10T14:35:12;2.35;;;0.90;;
35366;SDS011;21465;52.278;20.962;2023-05-10T14:37:38;1.38;;;1.08;;
35366;SDS011;21465;52.278;20.962;2023-05-10T14:40:04;2.58;;;1.58;;
35366;SDS011;21465;52.278;20.962;2023-05-10T14:42:31;0.70;;;0.65;;
35366;SDS011;21465;52.278;20.962;2023-05-10T14:44:57;3.35;;;1.20;;
35366;SDS011;21465;52.278;20.962;2023-05-10T14:47:23;1.25;;;0.93;;
35366;SDS011;21465;52.278;20.962;2023-05-10T14:49:49;4.03;;;1.00;;
35366;SDS011;21465;52.278;20.962;2023-05-10T14:55:37;1.95;;;1.38;;
35366;SDS011;21465;52.278;20.962;2023-05-10T14:58:06;0.70;;;0.70;;
35366;SDS011;21465;52.278;20.962;2023-05-10T15:00:32;2.20;;;1.10;;
35366;SDS011;21465;52.278;20.962;2023-05-10T15:02:58;2.85;;;1.00;;
35366;SDS011;21465;52.278;20.962;2023-05-10T15:05:24;3.45;;;1.02;;
35366;SDS011;21465;52.278;20.962;2023-05-10T15:07:50;1.13;;;0.80;;
35366;SDS011;21465;52.278;20.962;2023-05-10T15:10:17;2.67;;;0.98;;
35366;SDS011;21465;52.278;20.962;2023-05-10T15:12:43;8.10;;;1.02;;
35366;SDS011;21465;52.278;20.962;2023-05-10T15:15:09;2.72;;;0.80;;
35366;SDS011;21465;52.278;20.962;2023-05-10T15:17:35;3.55;;;1.10;;
35366;SDS011;21465;52.278;20.962;2023-05-10T15:20:01;2.42;;;0.73;;
35366;SDS011;21465;52.278;20.962;2023-05-10T15:22:29;2.35;;;1.10;;
35366;SDS011;21465;52.278;20.962;2023-05-10T15:24:57;1.05;;;0.95;;
35366;SDS011;21465;52.278;20.962;2023-05-10T15:27:24;3.90;;;0.90;;
35366;SDS011;21465;52.278;20.962;2023-05-10T15:29:52;3.42;;;0.80;;
35366;SDS011;21465;52.278;20.962;2023-05-10T15:32:18;1.63;;;0.93;;
35366;SDS011;21465;52.278;20.962;2023-05-10T15:34:43;1.70;;;0.60;;